Time;durP1;ratioP1;P1;durP2;ratioP2;P2;SDS_P1;SDS_P2;PMS_P1;PMS_P2;Temp;Humidity;BMP_temperature;BMP_pressure;BME280_temperature;BME280_humidity;BME280_pressure;Samples;Min_cycle;Max_cycle;Signal;HPM_P1;HPM_P2
2024/01/01 00:01:16;;;;;;;9.88;5.88;;;7.60;99.90;;;;;;4985250;28;20093;-89
2024/01/01 00:03:43;;;;;;;8.73;6.15;;;7.50;99.90;;;;;;4985466;28;20055;-90
2024/01/01 00:06:09;;;;;;;7.00;4.70;;;7.50;99.90;;;;;;4984192;28;20045;-88
2024/01/01 00:08:35;;;;;;;8.73;4.68;;;7.50;99.90;;;;;;4986028;28;20108;-84
2024/01/01 00:11:00;;;;;;;8.13;4.75;;;7.50;99.90;;;;;;4984296;28;20138;-86
2024/01/01 00:13:26;;;;;;;8.48;4.55;;;7.50;99.90;;;;;;4983447;28;20386;-90
2024/01/01 00:15:52;;;;;;;4.18;3.15;;;7.50;99.90;;;;;;4995950;28;20042;-89
2024/01/01 00:18:17;;;;;;;13.10;2.33;;;7.50;99.90;;;;;;4984649;28;20039;-89
2024/01/01 00:20:43;;;;;;;3.35;2.70;;;7.50;99.90;;;;;;4987775;28;20046;-84
2024/01/01 00:23:09;;;;;;;7.00;3.28;;;7.50;99.90;;;;;;4996584;28;20046;-84
2024/01/01 00:25:36;;;;;;;7.53;3.30;;;7.50;99.90;;;;;;4984043;28;20039;-80
2024/01/01 00:28:04;;;;;;;3.63;1.88;;;7.50;99.90;;;;;;4983181;28;20042;-89
2024/01/01 00:30:29;;;;;;;7.50;2.33;;;7.50;99.90;;;;;;4968013;28;20042;-81
2024/01/01 00:32:55;;;;;;;4.22;2.83;;;7.50;99.90;;;;;;4979715;28;20160;-85
2024/01/01 00:35:20;;;;;;;5.70;3.97;;;7.50;99.90;;;;;;4987055;28;20045;-87
2024/01/01 00:37:46;;;;;;;5.18;3.13;;;7.50;99.90;;;;;;4996477;28;20049;-83
2024/01/01 00:40:12;;;;;;;10.23;3.72;;;7.40;99.90;;;;;;4986355;28;20504;-84
2024/01/01 00:42:38;;;;;;;5.40;3.38;;;7.40;99.90;;;;;;4990191;28;20050;-87
2024/01/01 00:45:04;;;;;;;9.63;4.03;;;7.40;99.90;;;;;;5006769;28;20392;-88
2024/01/01 00:47:30;;;;;;;4.53;2.50;;;7.50;99.90;;;;;;4969252;28;20559;-88
2024/01/01 00:49:57;;;;;;;5.93;3.60;;;7.40;99.90;;;;;;4974822;28;20065;-81
2024/01/01 00:52:23;;;;;;;8.30;3.40;;;7.40;99.90;;;;;;4954806;28;20256;-84
2024/01/01 00:54:49;;;;;;;3.13;2.50;;;7.40;99.90;;;;;;4971021;28;20045;-86
2024/01/01 00:57:14;;;;;;;4.18;2.75;;;7.40;99.90;;;;;;4967624;28;20050;-87
2024/01/01 00:59:40;;;;;;;3.78;3.47;;;7.30;99.90;;;;;;4973227;28;20043;-90
2024/01/01 01:02:06;;;;;;;8.23;4.63;;;7.30;99.90;;;;;;4972333;28;20129;-91
2024/01/01 01:04:31;;;;;;;9.85;7.22;;;7.30;99.90;;;;;;4970031;28;20046;-82
2024/01/01 01:06:57;;;;;;;10.43;6.32;;;7.20;99.90;;;;;;4975644;28;20057;-86
2024/01/01 01:09:22;;;;;;;12.35;6.95;;;7.20;99.90;;;;;;4964351;28;20537;-87
2024/01/01 01:11:48;;;;;;;8.75;7.15;;;7.10;99.90;;;;;;4975016;28;20046;-87
2024/01/01 01:14:14;;;;;;;11.23;7.20;;;7.10;99.90;;;;;;4974885;28;20042;-91
2024/01/01 01:16:39;;;;;;;10.63;7.35;;;7.10;99.90;;;;;;4970902;28;20070;-86
2024/01/01 01:19:05;;;;;;;11.05;7.35;;;7.00;99.90;;;;;;4981757;28;20133;-83
2024/01/01 01:21:31;;;;;;;12.93;7.28;;;7.00;99.90;;;;;;4983024;28;20048;-87
2024/01/01 01:23:58;;;;;;;10.88;7.68;;;7.00;99.90;;;;;;4983110;28;20397;-90
2024/01/01 01:26:24;;;;;;;15.27;8.32;;;7.00;99.90;;;;;;4983895;28;20046;-90
2024/01/01 01:28:49;;;;;;;13.30;9.18;;;7.00;99.90;;;;;;5008689;28;20034;-81
2024/01/01 01:31:15;;;;;;;15.98;9.52;;;7.00;99.90;;;;;;4956512;28;20449;-82
2024/01/01 01:33:40;;;;;;;18.42;8.75;;;7.00;99.90;;;;;;4998821;28;20057;-81
2024/01/01 01:36:08;;;;;;;15.55;11.95;;;7.00;99.90;;;;;;4972551;28;20058;-86
2024/01/01 01:38:35;;;;;;;23.48;11.55;;;7.00;99.90;;;;;;4983800;28;20508;-81
2024/01/01 01:41:01;;;;;;;22.70;14.75;;;7.00;99.90;;;;;;4968776;28;20078;-88
2024/01/01 01:43:27;;;;;;;28.52;13.48;;;7.00;99.90;;;;;;4977958;28;20042;-88
2024/01/01 01:45:53;;;;;;;22.20;14.15;;;7.00;99.90;;;;;;4962375;28;20070;-82
2024/01/01 01:48:20;;;;;;;18.48;14.27;;;7.10;99.90;;;;;;4964819;28;20061;-82
2024/01/01 01:50:48;;;;;;;23.08;16.38;;;7.10;99.90;;;;;;4964000;28;20433;-82
2024/01/01 01:53:15;;;;;;;22.75;14.07;;;7.10;99.90;;;;;;5003235;28;20137;-81
2024/01/01 01:55:45;;;;;;;27.67;14.75;;;7.10;99.90;;;;;;4982392;28;20521;-83
2024/01/01 01:58:11;;;;;;;22.65;14.82;;;7.10;99.90;;;;;;4981148;28;20050;-80
2024/01/01 02:00:40;;;;;;;20.23;13.07;;;7.10;99.90;;;;;;4982265;28;20038;-84
2024/01/01 02:03:07;;;;;;;20.52;14.95;;;7.10;99.90;;;;;;4981882;28;20078;-86
2024/01/01 02:05:33;;;;;;;30.17;13.88;;;7.10;99.90;;;;;;4982038;28;20058;-87
2024/01/01 02:08:00;;;;;;;16.73;11.70;;;7.10;99.90;;;;;;4983348;28;20416;-83
2024/01/01 02:10:26;;;;;;;18.35;10.98;;;7.10;99.90;;;;;;4982626;28;20058;-83
2024/01/01 02:12:51;;;;;;;22.92;12.05;;;7.10;99.90;;;;;;5046348;23;20324;-82
2024/01/01 02:15:17;;;;;;;15.23;12.10;;;7.00;99.90;;;;;;4980378;28;20038;-87
2024/01/01 02:17:43;;;;;;;21.65;12.68;;;7.10;99.90;;;;;;4980451;28;20165;-88
2024/01/01 02:20:09;;;;;;;18.45;11.00;;;7.10;99.90;;;;;;4995339;28;20041;-86
2024/01/01 02:22:39;;;;;;;14.73;9.93;;;7.10;99.90;;;;;;4987318;28;20042;-91
2024/01/01 02:25:06;;;;;;;15.40;10.68;;;7.00;99.90;;;;;;4989379;28;20480;-88
2024/01/01 02:27:32;;;;;;;16.52;10.45;;;7.10;99.90;;;;;;4969869;28;20046;-88
2024/01/01 02:29:58;;;;;;;25.10;11.13;;;7.10;99.90;;;;;;4986072;28;20042;-86
2024/01/01 02:32:23;;;;;;;12.77;8.80;;;7.10;99.90;;;;;;4984583;28;20049;-79
2024/01/01 02:34:49;;;;;;;14.77;8.70;;;7.00;99.90;;;;;;4988378;28;20050;-87
2024/01/01 02:37:14;;;;;;;12.95;7.72;;;7.00;99.90;;;;;;5001707;28;20042;-90
2024/01/01 02:39:40;;;;;;;14.82;7.90;;;7.00;99.90;;;;;;4988187;28;20046;-90
2024/01/01 02:42:05;;;;;;;14.80;8.50;;;7.00;99.90;;;;;;4981686;28;20045;-86
2024/01/01 02:44:31;;;;;;;12.57;8.07;;;7.00;99.90;;;;;;4994818;28;20725;-83
2024/01/01 02:46:57;;;;;;;11.45;7.32;;;7.00;99.90;;;;;;4986989;28;20608;-83
2024/01/01 02:49:22;;;;;;;11.60;6.18;;;7.00;99.90;;;;;;4989172;28;20042;-90
2024/01/01 02:51:48;;;;;;;11.23;6.80;;;7.00;99.90;;;;;;4999243;28;20053;-90
2024/01/01 02:54:14;;;;;;;12.40;7.00;;;7.00;99.90;;;;;;5001630;28;20045;-82
2024/01/01 02:56:40;;;;;;;19.73;6.30;;;7.00;99.90;;;;;;4987835;28;20046;-85
2024/01/01 02:59:06;;;;;;;11.50;7.40;;;7.00;99.90;;;;;;4999074;28;20037;-83
2024/01/01 03:01:31;;;;;;;11.95;7.38;;;7.00;99.90;;;;;;4996283;28;20046;-86
2024/01/01 03:03:57;;;;;;;18.10;6.78;;;7.00;99.90;;;;;;5003296;28;20049;-90
2024/01/01 03:06:22;;;;;;;14.90;5.78;;;7.00;99.90;;;;;;4988463;28;20042;-89
2024/01/01 03:08:48;;;;;;;12.43;6.07;;;7.00;99.90;;;;;;4987738;28;20038;-85
2024/01/01 03:11:14;;;;;;;20.15;5.82;;;7.00;99.90;;;;;;4995219;28;20045;-84
2024/01/01 03:13:40;;;;;;;11.68;7.53;;;7.00;99.90;;;;;;4998166;28;20389;-86
2024/01/01 03:16:08;;;;;;;10.30;6.72;;;7.00;99.90;;;;;;4986332;28;20046;-89
2024/01/01 03:18:34;;;;;;;6.30;4.90;;;7.00;99.90;;;;;;4987021;28;20119;-88
2024/01/01 03:21:00;;;;;;;7.97;4.07;;;7.00;99.90;;;;;;4986179;28;20484;-83
2024/01/01 03:23:25;;;;;;;9.85;5.70;;;7.00;99.90;;;;;;4980700;28;20532;-86
2024/01/01 03:25:51;;;;;;;6.45;4.18;;;7.00;99.90;;;;;;4995600;28;20042;-84
2024/01/01 03:28:16;;;;;;;6.03;4.28;;;7.00;99.90;;;;;;4984897;28;20052;-81
2024/01/01 03:30:43;;;;;;;5.53;3.60;;;7.00;99.90;;;;;;5002725;28;20508;-88
2024/01/01 03:33:09;;;;;;;13.80;4.47;;;7.00;99.90;;;;;;4951852;28;20046;-81
2024/01/01 03:35:35;;;;;;;7.78;3.97;;;7.00;99.90;;;;;;4976477;28;20046;-88
2024/01/01 03:38:01;;;;;;;9.27;5.20;;;7.00;99.90;;;;;;4985823;28;20407;-85
2024/01/01 03:40:27;;;;;;;15.70;4.00;;;7.00;99.90;;;;;;4986650;28;20090;-83
2024/01/01 03:42:53;;;;;;;16.58;5.30;;;7.00;99.90;;;;;;5000965;28;20042;-83
2024/01/01 03:45:19;;;;;;;7.43;3.03;;;7.00;99.90;;;;;;4972459;28;20070;-87
2024/01/01 03:47:45;;;;;;;10.10;3.60;;;7.00;99.90;;;;;;4986252;28;20046;-88
2024/01/01 03:50:10;;;;;;;5.70;2.95;;;7.00;99.90;;;;;;4985760;28;20542;-81
2024/01/01 03:52:36;;;;;;;8.45;3.65;;;7.00;99.90;;;;;;4985367;28;20065;-84
2024/01/01 03:55:03;;;;;;;6.10;3.67;;;7.00;99.90;;;;;;4978596;28;20037;-85
2024/01/01 03:57:31;;;;;;;5.93;3.72;;;7.00;99.90;;;;;;5004738;28;20069;-85
2024/01/01 03:59:57;;;;;;;6.60;3.22;;;7.10;99.90;;;;;;4993069;28;20038;-87
2024/01/01 04:02:22;;;;;;;4.75;3.67;;;7.00;99.90;;;;;;5001987;28;20385;-89
2024/01/01 04:04:49;;;;;;;3.90;2.67;;;7.00;99.90;;;;;;4984949;28;20046;-88
2024/01/01 04:07:16;;;;;;;12.07;3.45;;;7.00;99.90;;;;;;4994068;28;20046;-85
2024/01/01 04:09:42;;;;;;;4.40;2.70;;;7.10;99.90;;;;;;4998240;28;20054;-85
2024/01/01 04:12:07;;;;;;;3.75;3.13;;;7.00;99.90;;;;;;4981397;28;20050;-83
2024/01/01 04:14:33;;;;;;;5.05;3.03;;;7.00;99.90;;;;;;4985525;28;20038;-86
2024/01/01 04:16:59;;;;;;;6.32;2.03;;;7.10;99.90;;;;;;4971987;28;20038;-87
2024/01/01 04:19:24;;;;;;;5.72;2.53;;;7.10;99.90;;;;;;5004558;28;20042;-87
2024/01/01 04:21:50;;;;;;;4.75;2.70;;;7.10;99.90;;;;;;5004948;28;20054;-85
2024/01/01 04:24:15;;;;;;;4.72;2.45;;;7.10;99.90;;;;;;4997626;28;20046;-83
2024/01/01 04:26:41;;;;;;;6.75;2.08;;;7.10;99.90;;;;;;4987310;28;20050;-83
2024/01/01 04:29:06;;;;;;;3.20;2.75;;;7.10;99.90;;;;;;4964779;28;20042;-88
2024/01/01 04:31:32;;;;;;;3.97;2.40;;;7.10;99.90;;;;;;5004676;28;20046;-87
2024/01/01 04:33:57;;;;;;;1.45;1.23;;;7.10;99.90;;;;;;4983334;28;20472;-85
2024/01/01 04:36:23;;;;;;;4.38;1.73;;;7.10;99.90;;;;;;4985809;28;20677;-83
2024/01/01 04:38:48;;;;;;;2.20;1.50;;;7.10;99.90;;;;;;4984229;28;20100;-80
2024/01/01 04:41:14;;;;;;;2.95;1.27;;;7.10;99.90;;;;;;4997550;28;20091;-82
2024/01/01 04:43:40;;;;;;;3.65;1.67;;;7.10;99.90;;;;;;5000107;28;20121;-87
2024/01/01 04:46:07;;;;;;;3.85;1.40;;;7.00;99.90;;;;;;4990138;28;20085;-84
2024/01/01 04:48:34;;;;;;;2.60;1.52;;;7.10;99.90;;;;;;5002431;28;20042;-86
2024/01/01 04:51:00;;;;;;;3.15;1.10;;;7.00;99.90;;;;;;4991886;28;20733;-84
2024/01/01 04:53:25;;;;;;;1.90;1.10;;;7.00;99.90;;;;;;4984273;28;20053;-85
2024/01/01 04:55:51;;;;;;;2.78;1.45;;;7.00;99.90;;;;;;4983363;28;20096;-82
2024/01/01 04:58:17;;;;;;;1.52;1.42;;;7.00;99.90;;;;;;4983449;28;20042;-87
2024/01/01 05:00:42;;;;;;;3.03;0.90;;;7.00;99.90;;;;;;4985084;28;20093;-80
2024/01/01 05:03:08;;;;;;;2.03;1.45;;;7.00;99.90;;;;;;4996044;28;20091;-84
2024/01/01 05:05:33;;;;;;;0.82;0.50;;;7.00;99.90;;;;;;5002965;28;20050;-81
2024/01/01 05:07:59;;;;;;;2.70;1.15;;;7.00;99.90;;;;;;4991257;28;20041;-82
2024/01/01 05:10:24;;;;;;;0.65;0.65;;;7.00;99.90;;;;;;4989425;28;20046;-87
2024/01/01 05:12:50;;;;;;;1.90;1.00;;;7.00;99.90;;;;;;4992215;28;20058;-86
2024/01/01 05:15:16;;;;;;;2.30;0.50;;;7.00;99.90;;;;;;4983617;28;20150;-82
2024/01/01 05:17:41;;;;;;;1.52;0.68;;;7.00;99.90;;;;;;4996294;28;20105;-83
2024/01/01 05:20:08;;;;;;;2.83;0.60;;;7.00;99.90;;;;;;4998056;28;20038;-83
2024/01/01 05:22:33;;;;;;;2.10;1.20;;;7.00;99.90;;;;;;4977492;28;20049;-85
2024/01/01 05:24:59;;;;;;;0.55;0.50;;;7.00;99.90;;;;;;4979967;28;20049;-87
2024/01/01 05:27:25;;;;;;;1.77;1.20;;;7.00;99.90;;;;;;4968088;28;20074;-87
2024/01/01 05:29:51;;;;;;;1.40;0.80;;;7.00;99.90;;;;;;4988256;28;20046;-83
2024/01/01 05:32:17;;;;;;;4.05;1.95;;;7.00;99.90;;;;;;4980754;28;20370;-80
2024/01/01 05:34:42;;;;;;;2.45;1.30;;;7.00;99.90;;;;;;4999769;28;20054;-85
2024/01/01 05:37:08;;;;;;;10.50;1.65;;;7.10;99.90;;;;;;4987239;28;20111;-87
2024/01/01 05:39:35;;;;;;;5.80;1.98;;;7.10;99.90;;;;;;4995112;28;20042;-84
2024/01/01 05:42:01;;;;;;;6.15;1.77;;;7.10;99.90;;;;;;4981279;28;20042;-86
2024/01/01 05:44:27;;;;;;;3.95;1.90;;;7.10;99.90;;;;;;4995247;28;20121;-82
2024/01/01 05:46:52;;;;;;;2.35;1.52;;;7.10;99.90;;;;;;4995479;28;20048;-82
2024/01/01 05:49:18;;;;;;;3.13;1.70;;;7.20;99.90;;;;;;4995157;28;20037;-83
2024/01/01 05:51:44;;;;;;;6.05;1.60;;;7.20;99.90;;;;;;4984401;28;20080;-86
2024/01/01 05:54:10;;;;;;;4.80;1.48;;;7.20;99.90;;;;;;4967020;28;20050;-86
2024/01/01 05:56:37;;;;;;;5.25;2.10;;;7.20;99.90;;;;;;4981443;28;20061;-85
2024/01/01 05:59:02;;;;;;;5.60;1.35;;;7.20;99.90;;;;;;4986976;28;20030;-82
2024/01/01 06:01:28;;;;;;;4.35;1.30;;;7.20;99.90;;;;;;4992675;28;20057;-82
2024/01/01 06:03:53;;;;;;;8.07;2.60;;;7.20;99.90;;;;;;4983263;28;20046;-84
2024/01/01 06:06:19;;;;;;;3.78;1.42;;;7.30;99.90;;;;;;4983621;28;20046;-87
2024/01/01 06:08:44;;;;;;;3.75;1.67;;;7.30;99.90;;;;;;4992901;28;20038;-84
2024/01/01 06:11:10;;;;;;;3.00;1.00;;;7.30;99.90;;;;;;4985103;28;20038;-82
2024/01/01 06:13:36;;;;;;;4.45;1.67;;;7.30;99.90;;;;;;4994665;28;20602;-81
2024/01/01 06:16:03;;;;;;;3.88;1.00;;;7.20;99.90;;;;;;4993944;28;20046;-84
2024/01/01 06:18:29;;;;;;;1.52;0.60;;;7.30;99.90;;;;;;4993543;28;20054;-85
2024/01/01 06:20:54;;;;;;;4.30;1.00;;;7.30;99.90;;;;;;4986101;28;20064;-82
2024/01/01 06:23:20;;;;;;;3.35;1.33;;;7.30;99.90;;;;;;4992769;28;20129;-83
2024/01/01 06:25:45;;;;;;;4.07;0.90;;;7.30;99.90;;;;;;4992892;28;20559;-82
2024/01/01 06:28:11;;;;;;;1.70;1.17;;;7.20;99.90;;;;;;4992879;28;20566;-83
2024/01/01 06:30:37;;;;;;;4.22;1.00;;;7.20;99.90;;;;;;5001104;28;20034;-83
2024/01/01 06:33:04;;;;;;;0.95;0.50;;;7.10;99.90;;;;;;4991532;28;20042;-86
2024/01/01 06:35:30;;;;;;;2.78;0.40;;;6.80;99.90;;;;;;4992094;28;20121;-79
2024/01/01 06:37:59;;;;;;;0.52;0.52;;;7.00;99.90;;;;;;4986601;28;20117;-86
2024/01/01 06:40:25;;;;;;;1.75;0.80;;;6.90;99.90;;;;;;4985750;28;20104;-85
2024/01/01 06:42:50;;;;;;;3.25;0.43;;;6.80;99.90;;;;;;4966777;28;20077;-81
2024/01/01 06:45:17;;;;;;;1.35;0.20;;;6.70;99.90;;;;;;4988254;28;20282;-82
2024/01/01 06:47:43;;;;;;;0.32;0.25;;;6.70;99.90;;;;;;4983769;28;20050;-84
2024/01/01 06:50:09;;;;;;;0.20;0.10;;;6.70;99.90;;;;;;4991819;28;20046;-86
2024/01/01 06:52:34;;;;;;;0.35;0.35;;;6.60;99.90;;;;;;4981574;28;20488;-86
2024/01/01 06:55:00;;;;;;;0.10;0.03;;;6.60;99.90;;;;;;4992081;28;20082;-83
2024/01/01 06:57:25;;;;;;;0.70;0.10;;;6.60;99.90;;;;;;4983449;28;20312;-81
2024/01/01 06:59:51;;;;;;;2.30;0.70;;;6.60;99.90;;;;;;4985256;28;20043;-83
2024/01/01 07:02:17;;;;;;;0.73;0.30;;;6.60;99.90;;;;;;4985212;28;20555;-85
2024/01/01 07:04:42;;;;;;;12.57;0.60;;;6.60;99.90;;;;;;4992389;28;20054;-85
2024/01/01 07:07:09;;;;;;;0.25;0.10;;;6.60;99.90;;;;;;4997216;28;20091;-83
2024/01/01 07:09:35;;;;;;;0.93;0.25;;;6.60;99.90;;;;;;4984993;28;20041;-84
2024/01/01 07:12:18;;;;;;;0.65;0.15;;;6.60;99.90;;;;;;4982216;28;20050;-82
2024/01/01 07:14:44;;;;;;;0.50;0.30;;;6.60;99.90;;;;;;4986022;28;20054;-84
2024/01/01 07:17:10;;;;;;;0.20;0.20;;;6.60;99.90;;;;;;4990486;28;20050;-85
2024/01/01 07:19:35;;;;;;;2.30;0.32;;;6.60;99.90;;;;;;4993834;28;20046;-84
2024/01/01 07:22:01;;;;;;;0.77;0.50;;;6.60;99.90;;;;;;4989551;28;20034;-85
2024/01/01 07:24:27;;;;;;;0.75;0.40;;;6.60;99.90;;;;;;4986034;28;20080;-81
2024/01/01 07:26:52;;;;;;;1.23;0.45;;;6.60;99.90;;;;;;4996131;28;20050;-80
2024/01/01 07:29:18;;;;;;;3.08;0.65;;;6.60;99.90;;;;;;5005849;28;20137;-84
2024/01/01 07:31:46;;;;;;;5.45;0.70;;;6.60;99.90;;;;;;5005184;28;20488;-85
2024/01/01 07:34:15;;;;;;;9.07;1.80;;;6.70;99.90;;;;;;5003361;28;20583;-83
2024/01/01 07:36:42;;;;;;;2.05;1.25;;;6.70;99.90;;;;;;4998448;28;20176;-84
2024/01/01 07:39:08;;;;;;;5.47;0.60;;;6.70;99.90;;;;;;4999379;28;20608;-83
2024/01/01 07:41:33;;;;;;;4.40;1.23;;;6.70;99.90;;;;;;5003318;28;20045;-81
2024/01/01 07:43:59;;;;;;;0.57;0.57;;;6.70;99.90;;;;;;5000203;28;20109;-81
2024/01/01 07:46:24;;;;;;;1.70;1.10;;;6.70;99.90;;;;;;4989237;28;20046;-84
2024/01/01 07:48:50;;;;;;;3.78;1.00;;;6.80;99.90;;;;;;4985758;28;20396;-84
2024/01/01 07:51:16;;;;;;;2.08;1.27;;;6.80;99.90;;;;;;4999382;28;20115;-84
2024/01/01 07:53:42;;;;;;;5.18;0.68;;;6.80;99.90;;;;;;4979768;28;20042;-82
2024/01/01 07:56:08;;;;;;;5.70;0.80;;;6.80;99.90;;;;;;5000156;28;20034;-83
2024/01/01 07:58:33;;;;;;;5.88;1.30;;;6.80;99.90;;;;;;4996039;28;20437;-81
2024/01/01 08:00:59;;;;;;;0.88;0.80;;;6.80;99.90;;;;;;4990953;28;20034;-85
2024/01/01 08:03:25;;;;;;;2.30;1.08;;;6.80;99.90;;;;;;4999937;28;20133;-84
2024/01/01 08:05:51;;;;;;;1.38;1.00;;;6.80;99.90;;;;;;4967683;28;20101;-84
2024/01/01 08:08:17;;;;;;;6.55;1.08;;;6.80;99.90;;;;;;4991964;28;20042;-81
2024/01/01 08:10:43;;;;;;;4.18;1.67;;;6.90;99.90;;;;;;4985138;28;20133;-81
2024/01/01 08:13:09;;;;;;;5.05;0.82;;;6.90;99.90;;;;;;4993309;28;20111;-83
2024/01/01 08:15:35;;;;;;;2.53;0.70;;;6.90;99.90;;;;;;4993854;28;20447;-84
2024/01/01 08:18:02;;;;;;;3.72;1.10;;;6.90;99.90;;;;;;5004533;28;20042;-81
2024/01/01 08:20:29;;;;;;;3.45;0.90;;;6.90;99.90;;;;;;5001365;28;20522;-85
2024/01/01 08:22:55;;;;;;;0.32;0.32;;;6.90;99.90;;;;;;4993556;28;20049;-84
2024/01/01 08:25:20;;;;;;;2.75;0.88;;;6.90;99.90;;;;;;5000018;28;20066;-82
2024/01/01 08:27:47;;;;;;;4.50;1.10;;;6.90;99.90;;;;;;4984467;28;20516;-82
2024/01/01 08:30:13;;;;;;;1.23;0.52;;;6.80;99.90;;;;;;4984768;28;20072;-82
2024/01/01 08:32:39;;;;;;;3.67;0.50;;;6.80;99.90;;;;;;4993259;28;20041;-81
2024/01/01 08:35:05;;;;;;;1.42;0.82;;;6.70;99.90;;;;;;4994648;28;20108;-79
2024/01/01 08:37:30;;;;;;;3.95;1.17;;;6.70;99.90;;;;;;5002830;28;20489;-82
2024/01/01 08:39:56;;;;;;;7.15;1.17;;;6.70;99.90;;;;;;4991995;28;20400;-82
2024/01/01 08:42:22;;;;;;;1.38;0.70;;;6.70;99.90;;;;;;4987987;28;20053;-82
2024/01/01 08:44:48;;;;;;;2.17;1.33;;;6.70;99.90;;;;;;4988579;28;20045;-85
2024/01/01 08:47:15;;;;;;;1.42;0.68;;;6.70;99.90;;;;;;4992005;28;20042;-84
2024/01/01 08:49:41;;;;;;;3.90;1.05;;;6.70;99.90;;;;;;4986934;28;20559;-84
2024/01/01 08:52:07;;;;;;;3.70;1.30;;;6.70;99.90;;;;;;4984729;28;20037;-83
2024/01/01 08:54:33;;;;;;;5.90;1.67;;;6.80;99.90;;;;;;4999510;28;20655;-82
2024/01/01 08:56:59;;;;;;;2.85;0.75;;;6.80;99.90;;;;;;4996820;28;20038;-78
2024/01/01 08:59:24;;;;;;;3.80;0.75;;;6.80;99.90;;;;;;4984420;28;20049;-78
2024/01/01 09:01:50;;;;;;;0.95;0.30;;;6.80;99.90;;;;;;4990375;28;20042;-80
2024/01/01 09:04:17;;;;;;;2.90;1.48;;;6.80;99.90;;;;;;4984624;28;20046;-79
2024/01/01 09:06:43;;;;;;;1.15;0.93;;;6.80;99.90;;;;;;4993030;28;20064;-79
2024/01/01 09:09:10;;;;;;;1.65;0.70;;;6.90;99.90;;;;;;4992596;28;20562;-79
2024/01/01 09:11:36;;;;;;;3.05;0.90;;;6.90;99.90;;;;;;4998711;28;20046;-79
2024/01/01 09:14:02;;;;;;;4.18;1.05;;;6.90;99.90;;;;;;5001462;28;20465;-79
2024/01/01 09:16:29;;;;;;;1.70;0.55;;;7.00;99.90;;;;;;4991660;28;20069;-78
2024/01/01 09:18:56;;;;;;;3.92;1.45;;;7.00;99.90;;;;;;4994182;28;20038;-78
2024/01/01 09:21:24;;;;;;;2.92;0.77;;;7.00;99.90;;;;;;4993916;28;20558;-78
2024/01/01 09:23:50;;;;;;;4.75;1.00;;;7.00;99.90;;;;;;4992265;28;20046;-80
2024/01/01 09:26:16;;;;;;;4.45;1.58;;;7.00;99.90;;;;;;4986039;28;20128;-79
2024/01/01 09:28:41;;;;;;;1.95;1.02;;;7.00;99.90;;;;;;4986580;28;20118;-79
2024/01/01 09:31:07;;;;;;;0.75;0.70;;;7.00;99.90;;;;;;4986882;28;20497;-79
2024/01/01 09:33:33;;;;;;;3.65;0.80;;;7.00;99.90;;;;;;5000841;28;20056;-79
2024/01/01 09:35:59;;;;;;;7.85;2.00;;;7.00;99.90;;;;;;4995523;28;20124;-79
2024/01/01 09:38:24;;;;;;;4.32;1.05;;;7.00;99.90;;;;;;4986551;28;20181;-79
2024/01/01 09:40:54;;;;;;;7.10;1.77;;;7.10;99.90;;;;;;4989432;28;20536;-80
2024/01/01 09:43:21;;;;;;;9.50;1.35;;;7.10;99.90;;;;;;4985818;28;20445;-80
2024/01/01 09:45:47;;;;;;;5.40;1.70;;;7.10;99.90;;;;;;4986477;28;20050;-79
2024/01/01 09:48:13;;;;;;;4.82;1.08;;;7.10;99.90;;;;;;4998824;28;20392;-79
2024/01/01 09:50:39;;;;;;;5.32;1.10;;;7.20;99.90;;;;;;5001282;28;20506;-79
2024/01/01 09:53:04;;;;;;;2.17;1.13;;;7.20;99.90;;;;;;4987150;28;20038;-79
2024/01/01 09:55:30;;;;;;;5.45;1.33;;;7.20;99.90;;;;;;4987773;28;20042;-79
2024/01/01 09:57:56;;;;;;;6.05;2.45;;;7.20;99.90;;;;;;4986427;28;20500;-80
2024/01/01 10:00:22;;;;;;;7.88;1.42;;;7.30;99.90;;;;;;4990254;28;20121;-80
2024/01/01 10:02:48;;;;;;;5.03;1.25;;;7.30;99.90;;;;;;4979608;28;20043;-79
2024/01/01 10:05:15;;;;;;;4.13;1.13;;;7.30;99.90;;;;;;4980771;28;20045;-79
2024/01/01 10:07:41;;;;;;;6.63;2.00;;;7.30;99.90;;;;;;4973902;28;20034;-80
2024/01/01 10:10:07;;;;;;;6.57;2.83;;;7.30;99.90;;;;;;4985249;28;20087;-79
2024/01/01 10:12:33;;;;;;;5.85;1.23;;;7.30;99.90;;;;;;4980298;28;20046;-80
2024/01/01 10:15:01;;;;;;;3.63;1.33;;;7.30;99.90;;;;;;4988379;28;20054;-81
2024/01/01 10:17:28;;;;;;;1.73;0.98;;;7.30;99.90;;;;;;5000870;28;20061;-80
2024/01/01 10:20:00;;;;;;;1.70;0.88;;;7.30;99.90;;;;;;4969112;28;20096;-80
2024/01/01 10:22:32;;;;;;;2.58;0.98;;;7.30;99.90;;;;;;4986628;28;20058;-81
2024/01/01 10:25:14;;;;;;;5.60;2.13;;;7.30;99.90;;;;;;4983618;28;20121;-80
2024/01/01 10:27:43;;;;;;;6.00;2.25;;;7.30;99.90;;;;;;4967284;28;20184;-79
2024/01/01 10:30:09;;;;;;;4.15;1.10;;;7.30;99.90;;;;;;4982998;28;20527;-79
2024/01/01 10:32:35;;;;;;;3.25;1.27;;;7.40;99.90;;;;;;4989009;28;20034;-80
2024/01/01 10:35:03;;;;;;;7.13;1.45;;;7.40;99.90;;;;;;4980226;28;20042;-79
2024/01/01 10:37:30;;;;;;;3.38;0.82;;;7.40;99.90;;;;;;4979980;28;20118;-80
2024/01/01 10:40:04;;;;;;;3.20;1.45;;;7.40;99.90;;;;;;4990270;28;20037;-79
2024/01/01 10:42:33;;;;;;;10.63;1.60;;;7.40;99.90;;;;;;4974861;28;20408;-79
2024/01/01 10:45:03;;;;;;;5.40;1.65;;;7.40;99.90;;;;;;4984404;28;20049;-80
2024/01/01 10:47:29;;;;;;;11.60;1.98;;;7.40;99.90;;;;;;4982048;28;20047;-79
2024/01/01 10:50:09;;;;;;;5.50;2.25;;;7.40;99.90;;;;;;4982108;28;20126;-80
2024/01/01 10:53:07;;;;;;;7.05;2.80;;;7.50;99.90;;;;;;4966395;28;20049;-81
2024/01/01 10:55:56;;;;;;;3.20;1.58;;;7.50;99.90;;;;;;4987594;28;20054;-79
2024/01/01 10:58:24;;;;;;;7.45;1.45;;;7.40;99.90;;;;;;4979909;28;20136;-80
2024/01/01 11:01:02;;;;;;;1.75;1.23;;;7.50;99.90;;;;;;4984445;28;20054;-80
2024/01/01 11:03:30;;;;;;;3.85;1.70;;;7.50;99.90;;;;;;4988378;28;20101;-78
2024/01/01 11:05:56;;;;;;;1.60;0.65;;;7.50;99.90;;;;;;4995314;28;20042;-79
2024/01/01 11:08:28;;;;;;;3.90;0.75;;;7.50;99.90;;;;;;4987178;28;20352;-79
2024/01/01 11:10:55;;;;;;;3.60;0.93;;;7.50;99.90;;;;;;4989869;28;20480;-79
2024/01/01 11:13:26;;;;;;;3.55;1.10;;;7.50;99.90;;;;;;5006251;28;20085;-79
2024/01/01 11:15:59;;;;;;;4.78;2.53;;;7.50;99.90;;;;;;4985134;28;20050;-79
2024/01/01 11:18:34;;;;;;;2.90;1.00;;;7.50;99.90;;;;;;4993266;28;20052;-79
2024/01/01 11:21:01;;;;;;;4.20;1.70;;;7.50;99.90;;;;;;4991592;28;20026;-79
2024/01/01 11:23:42;;;;;;;5.97;1.13;;;7.50;99.90;;;;;;4994195;28;20101;-77
2024/01/01 11:26:23;;;;;;;2.95;1.08;;;7.50;99.90;;;;;;4990952;28;20158;-80
2024/01/01 11:28:53;;;;;;;3.78;1.48;;;7.50;99.90;;;;;;4990202;28;20061;-80
2024/01/01 11:31:18;;;;;;;8.13;1.95;;;7.50;99.90;;;;;;4982818;28;20080;-80
2024/01/01 11:33:44;;;;;;;1.10;0.80;;;7.50;99.90;;;;;;4987137;28;20036;-80
2024/01/01 11:36:10;;;;;;;4.00;1.40;;;7.50;99.90;;;;;;4982509;28;20050;-80
2024/01/01 11:38:39;;;;;;;6.28;1.42;;;7.50;99.90;;;;;;4983182;28;20500;-80
2024/01/01 11:41:05;;;;;;;5.40;0.90;;;7.50;99.90;;;;;;4980689;28;20034;-80
2024/01/01 11:43:32;;;;;;;3.90;1.17;;;7.50;99.90;;;;;;4991360;28;20042;-80
2024/01/01 11:45:58;;;;;;;4.70;1.48;;;7.50;99.90;;;;;;4992334;28;20054;-81
2024/01/01 11:48:24;;;;;;;3.20;1.73;;;7.50;99.90;;;;;;4990776;28;20042;-81
2024/01/01 11:50:50;;;;;;;5.50;1.65;;;7.50;99.90;;;;;;4999525;28;20099;-82
2024/01/01 11:53:16;;;;;;;7.40;1.75;;;7.60;99.90;;;;;;4989032;28;20488;-81
2024/01/01 11:55:42;;;;;;;3.45;1.13;;;7.60;99.90;;;;;;4995714;28;20045;-81
2024/01/01 11:58:08;;;;;;;3.70;2.38;;;7.60;99.90;;;;;;4971913;28;20078;-81
2024/01/01 12:00:34;;;;;;;3.65;0.88;;;7.60;99.90;;;;;;4984548;28;20528;-83
2024/01/01 12:03:03;;;;;;;1.33;0.65;;;7.60;99.90;;;;;;4984628;28;20038;-81
2024/01/01 12:05:28;;;;;;;2.53;1.05;;;7.60;99.90;;;;;;4998245;28;20056;-81
2024/01/01 12:07:54;;;;;;;3.20;1.13;;;7.60;99.90;;;;;;4967438;28;20050;-82
2024/01/01 12:10:20;;;;;;;8.25;2.22;;;7.60;99.90;;;;;;4976496;28;21005;-82
2024/01/01 12:12:47;;;;;;;3.15;1.17;;;7.60;99.90;;;;;;4979228;28;20043;-83
2024/01/01 12:15:18;;;;;;;4.05;1.40;;;7.70;99.90;;;;;;4980210;28;20051;-85
2024/01/01 12:17:45;;;;;;;1.83;0.73;;;7.60;99.90;;;;;;4976390;28;20046;-82
2024/01/01 12:20:25;;;;;;;5.50;2.05;;;7.60;99.90;;;;;;4983525;28;20070;-82
2024/01/01 12:22:54;;;;;;;4.38;1.52;;;7.60;99.90;;;;;;4990651;28;20078;-78
2024/01/01 12:25:23;;;;;;;3.80;1.02;;;7.70;99.90;;;;;;4982830;28;20050;-81
2024/01/01 12:28:08;;;;;;;4.85;1.65;;;7.70;99.90;;;;;;4985135;28;20049;-83
2024/01/01 12:30:35;;;;;;;1.52;1.00;;;7.70;99.90;;;;;;4980742;28;20053;-79
2024/01/01 12:33:02;;;;;;;2.78;0.73;;;7.70;99.90;;;;;;4994269;28;20053;-80
2024/01/01 12:35:28;;;;;;;5.15;1.52;;;7.70;99.90;;;;;;4988532;28;20132;-80
2024/01/01 12:37:54;;;;;;;3.47;1.58;;;7.70;99.90;;;;;;4991248;28;20108;-81
2024/01/01 12:40:20;;;;;;;2.85;1.02;;;7.70;99.90;;;;;;4993675;28;20042;-80
2024/01/01 12:42:45;;;;;;;4.78;1.30;;;7.70;99.90;;;;;;4992172;28;20046;-80
2024/01/01 12:45:16;;;;;;;2.63;0.85;;;7.80;99.90;;;;;;4984639;28;20045;-82
2024/01/01 12:47:42;;;;;;;2.30;1.17;;;7.80;99.90;;;;;;4973307;28;20043;-84
2024/01/01 12:50:08;;;;;;;4.07;2.15;;;7.70;99.90;;;;;;4974919;28;20489;-82
2024/01/01 12:52:35;;;;;;;4.60;1.77;;;7.70;99.90;;;;;;4988091;28;20038;-82